sensor_id;sensor_type;location;lat;lon;timestamp;P1;durP1;ratioP1;P2;durP2;ratioP2
5299;SDS011;70402;42.670;23.258;2023-08-12T00:01:15;2.37;;;1.93;;
5299;SDS011;70402;42.670;23.258;2023-08-12T00:03:42;5.53;;;2.60;;
5299;SDS011;70402;42.670;23.258;2023-08-12T00:06:08;2.90;;;2.50;;
5299;SDS011;70402;42.670;23.258;2023-08-12T00:08:34;3.63;;;2.40;;
5299;SDS011;70402;42.670;23.258;2023-08-12T00:11:00;4.67;;;2.30;;
5299;SDS011;70402;42.670;23.258;2023-08-12T00:13:27;2.53;;;2.10;;
5299;SDS011;70402;42.670;23.258;2023-08-12T00:15:53;3.70;;;2.10;;
5299;SDS011;70402;42.670;23.258;2023-08-12T00:18:19;6.30;;;2.67;;
5299;SDS011;70402;42.670;23.258;2023-08-12T00:20:45;3.63;;;2.43;;
5299;SDS011;70402;42.670;23.258;2023-08-12T00:23:11;3.43;;;2.30;;
5299;SDS011;70402;42.670;23.258;2023-08-12T00:25:38;3.37;;;2.27;;
5299;SDS011;70402;42.670;23.258;2023-08-12T00:28:04;6.73;;;2.73;;
5299;SDS011;70402;42.670;23.258;2023-08-12T00:30:30;6.80;;;2.70;;
5299;SDS011;70402;42.670;23.258;2023-08-12T00:32:56;2.70;;;2.40;;
5299;SDS011;70402;42.670;23.258;2023-08-12T00:35:23;3.00;;;2.00;;
5299;SDS011;70402;42.670;23.258;2023-08-12T00:37:49;2.80;;;2.10;;
5299;SDS011;70402;42.670;23.258;2023-08-12T00:40:15;3.00;;;2.07;;
5299;SDS011;70402;42.670;23.258;2023-08-12T00:42:41;5.33;;;3.07;;
5299;SDS011;70402;42.670;23.258;2023-08-12T00:45:09;3.57;;;2.40;;
5299;SDS011;70402;42.670;23.258;2023-08-12T00:47:37;5.30;;;2.77;;
5299;SDS011;70402;42.670;23.258;2023-08-12T00:50:05;2.80;;;2.17;;
5299;SDS011;70402;42.670;23.258;2023-08-12T00:52:32;2.60;;;2.23;;
5299;SDS011;70402;42.670;23.258;2023-08-12T00:54:58;2.17;;;1.90;;
5299;SDS011;70402;42.670;23.258;2023-08-12T00:57:24;3.37;;;2.70;;
5299;SDS011;70402;42.670;23.258;2023-08-12T00:59:51;4.07;;;2.83;;
5299;SDS011;70402;42.670;23.258;2023-08-12T01:02:17;3.17;;;2.40;;
5299;SDS011;70402;42.670;23.258;2023-08-12T01:04:43;2.67;;;2.20;;
5299;SDS011;70402;42.670;23.258;2023-08-12T01:07:09;2.80;;;2.40;;
5299;SDS011;70402;42.670;23.258;2023-08-12T01:09:36;3.20;;;2.53;;
5299;SDS011;70402;42.670;23.258;2023-08-12T01:12:04;3.00;;;2.23;;
5299;SDS011;70402;42.670;23.258;2023-08-12T01:16:58;3.00;;;2.20;;
5299;SDS011;70402;42.670;23.258;2023-08-12T01:19:34;2.50;;;1.93;;
5299;SDS011;70402;42.670;23.258;2023-08-12T01:22:01;3.13;;;2.50;;
5299;SDS011;70402;42.670;23.258;2023-08-12T01:24:33;3.47;;;2.00;;
5299;SDS011;70402;42.670;23.258;2023-08-12T01:27:03;5.03;;;2.40;;
5299;SDS011;70402;42.670;23.258;2023-08-12T01:29:31;4.00;;;3.03;;
5299;SDS011;70402;42.670;23.258;2023-08-12T01:35:13;3.47;;;2.50;;
5299;SDS011;70402;42.670;23.258;2023-08-12T01:37:17;2.50;;;2.30;;
5299;SDS011;70402;42.670;23.258;2023-08-12T01:39:45;3.43;;;2.60;;
5299;SDS011;70402;42.670;23.258;2023-08-12T01:42:11;2.57;;;2.10;;
5299;SDS011;70402;42.670;23.258;2023-08-12T01:44:37;2.70;;;2.10;;
5299;SDS011;70402;42.670;23.258;2023-08-12T01:47:04;2.70;;;2.10;;
5299;SDS011;70402;42.670;23.258;2023-08-12T01:49:30;2.80;;;2.30;;
5299;SDS011;70402;42.670;23.258;2023-08-12T01:51:56;2.20;;;1.90;;
5299;SDS011;70402;42.670;23.258;2023-08-12T01:54:22;4.83;;;2.67;;
5299;SDS011;70402;42.670;23.258;2023-08-12T01:56:48;2.80;;;2.13;;
5299;SDS011;70402;42.670;23.258;2023-08-12T01:59:15;2.90;;;2.07;;
5299;SDS011;70402;42.670;23.258;2023-08-12T02:01:41;6.03;;;2.60;;
5299;SDS011;70402;42.670;23.258;2023-08-12T02:04:07;3.87;;;2.47;;
5299;SDS011;70402;42.670;23.258;2023-08-12T02:06:33;2.50;;;1.90;;
5299;SDS011;70402;42.670;23.258;2023-08-12T02:08:59;3.03;;;2.27;;
5299;SDS011;70402;42.670;23.258;2023-08-12T02:11:26;2.93;;;2.33;;
5299;SDS011;70402;42.670;23.258;2023-08-12T02:13:52;4.77;;;2.30;;
5299;SDS011;70402;42.670;23.258;2023-08-12T02:16:18;3.80;;;2.10;;
5299;SDS011;70402;42.670;23.258;2023-08-12T02:18:44;3.50;;;2.53;;
5299;SDS011;70402;42.670;23.258;2023-08-12T02:21:10;2.77;;;2.13;;
5299;SDS011;70402;42.670;23.258;2023-08-12T02:23:36;2.27;;;2.03;;
5299;SDS011;70402;42.670;23.258;2023-08-12T02:26:03;2.40;;;2.20;;
5299;SDS011;70402;42.670;23.258;2023-08-12T02:28:29;4.20;;;2.10;;
5299;SDS011;70402;42.670;23.258;2023-08-12T02:30:55;6.20;;;2.73;;
5299;SDS011;70402;42.670;23.258;2023-08-12T02:33:21;3.60;;;2.10;;
5299;SDS011;70402;42.670;23.258;2023-08-12T02:35:47;2.80;;;2.20;;
5299;SDS011;70402;42.670;23.258;2023-08-12T02:38:14;4.13;;;2.00;;
5299;SDS011;70402;42.670;23.258;2023-08-12T02:40:40;2.23;;;1.90;;
5299;SDS011;70402;42.670;23.258;2023-08-12T02:43:06;3.60;;;2.50;;
5299;SDS011;70402;42.670;23.258;2023-08-12T02:45:32;2.77;;;2.00;;
5299;SDS011;70402;42.670;23.258;2023-08-12T02:47:58;3.93;;;2.43;;
5299;SDS011;70402;42.670;23.258;2023-08-12T02:50:24;3.07;;;2.67;;
5299;SDS011;70402;42.670;23.258;2023-08-12T02:52:51;3.90;;;2.70;;
5299;SDS011;70402;42.670;23.258;2023-08-12T02:55:17;3.10;;;2.00;;
5299;SDS011;70402;42.670;23.258;2023-08-12T02:57:43;3.57;;;1.90;;
5299;SDS011;70402;42.670;23.258;2023-08-12T03:00:09;2.57;;;2.17;;
5299;SDS011;70402;42.670;23.258;2023-08-12T03:02:37;2.60;;;2.40;;
5299;SDS011;70402;42.670;23.258;2023-08-12T03:05:03;3.10;;;2.17;;
5299;SDS011;70402;42.670;23.258;2023-08-12T03:07:30;2.70;;;2.13;;
5299;SDS011;70402;42.670;23.258;2023-08-12T03:09:56;2.27;;;1.80;;
5299;SDS011;70402;42.670;23.258;2023-08-12T03:12:22;3.60;;;2.20;;
5299;SDS011;70402;42.670;23.258;2023-08-12T03:14:48;2.53;;;2.00;;
5299;SDS011;70402;42.670;23.258;2023-08-12T03:17:15;2.30;;;1.97;;
5299;SDS011;70402;42.670;23.258;2023-08-12T03:19:41;2.70;;;2.13;;
5299;SDS011;70402;42.670;23.258;2023-08-12T03:22:07;2.40;;;1.93;;
5299;SDS011;70402;42.670;23.258;2023-08-12T03:24:34;3.67;;;2.40;;
5299;SDS011;70402;42.670;23.258;2023-08-12T03:27:00;2.97;;;2.10;;
5299;SDS011;70402;42.670;23.258;2023-08-12T03:29:26;6.30;;;2.57;;
5299;SDS011;70402;42.670;23.258;2023-08-12T03:31:52;2.37;;;1.70;;
5299;SDS011;70402;42.670;23.258;2023-08-12T03:34:18;2.17;;;1.97;;
5299;SDS011;70402;42.670;23.258;2023-08-12T03:36:44;2.60;;;2.03;;
5299;SDS011;70402;42.670;23.258;2023-08-12T03:39:13;4.10;;;2.00;;
5299;SDS011;70402;42.670;23.258;2023-08-12T03:41:39;5.73;;;2.03;;
5299;SDS011;70402;42.670;23.258;2023-08-12T03:44:06;2.90;;;1.73;;
5299;SDS011;70402;42.670;23.258;2023-08-12T03:46:32;3.30;;;2.50;;
5299;SDS011;70402;42.670;23.258;2023-08-12T03:48:58;4.97;;;2.50;;
5299;SDS011;70402;42.670;23.258;2023-08-12T03:51:24;3.63;;;2.10;;
5299;SDS011;70402;42.670;23.258;2023-08-12T03:53:50;4.37;;;2.40;;
5299;SDS011;70402;42.670;23.258;2023-08-12T03:56:17;3.67;;;2.60;;
5299;SDS011;70402;42.670;23.258;2023-08-12T03:58:43;2.63;;;2.20;;
5299;SDS011;70402;42.670;23.258;2023-08-12T04:01:09;4.67;;;2.90;;
5299;SDS011;70402;42.670;23.258;2023-08-12T04:03:35;2.20;;;1.97;;
5299;SDS011;70402;42.670;23.258;2023-08-12T04:06:01;3.43;;;2.20;;
5299;SDS011;70402;42.670;23.258;2023-08-12T04:08:28;2.50;;;1.80;;
5299;SDS011;70402;42.670;23.258;2023-08-12T04:10:54;8.87;;;2.80;;
5299;SDS011;70402;42.670;23.258;2023-08-12T04:13:20;5.83;;;3.00;;
5299;SDS011;70402;42.670;23.258;2023-08-12T04:15:50;5.00;;;2.47;;
5299;SDS011;70402;42.670;23.258;2023-08-12T04:18:16;2.40;;;2.03;;
5299;SDS011;70402;42.670;23.258;2023-08-12T04:20:44;5.87;;;3.60;;
5299;SDS011;70402;42.670;23.258;2023-08-12T04:23:10;3.23;;;2.10;;
5299;SDS011;70402;42.670;23.258;2023-08-12T04:25:37;7.17;;;2.27;;
5299;SDS011;70402;42.670;23.258;2023-08-12T04:28:03;4.53;;;2.30;;
5299;SDS011;70402;42.670;23.258;2023-08-12T04:30:29;6.73;;;2.77;;
5299;SDS011;70402;42.670;23.258;2023-08-12T04:32:55;2.87;;;2.20;;
5299;SDS011;70402;42.670;23.258;2023-08-12T04:35:21;3.90;;;2.37;;
5299;SDS011;70402;42.670;23.258;2023-08-12T04:37:48;2.90;;;1.87;;
5299;SDS011;70402;42.670;23.258;2023-08-12T04:40:14;3.17;;;2.10;;
5299;SDS011;70402;42.670;23.258;2023-08-12T04:42:40;3.40;;;2.40;;
5299;SDS011;70402;42.670;23.258;2023-08-12T04:45:07;3.80;;;2.10;;
5299;SDS011;70402;42.670;23.258;2023-08-12T04:47:34;3.07;;;2.30;;
5299;SDS011;70402;42.670;23.258;2023-08-12T04:50:00;5.83;;;2.20;;
5299;SDS011;70402;42.670;23.258;2023-08-12T04:52:26;5.60;;;2.10;;
5299;SDS011;70402;42.670;23.258;2023-08-12T04:54:53;4.17;;;2.03;;
5299;SDS011;70402;42.670;23.258;2023-08-12T04:57:19;2.50;;;1.83;;
5299;SDS011;70402;42.670;23.258;2023-08-12T04:59:45;2.27;;;1.50;;
5299;SDS011;70402;42.670;23.258;2023-08-12T05:02:12;2.40;;;1.80;;
5299;SDS011;70402;42.670;23.258;2023-08-12T05:04:38;3.43;;;1.70;;
5299;SDS011;70402;42.670;23.258;2023-08-12T05:07:04;2.60;;;1.53;;
5299;SDS011;70402;42.670;23.258;2023-08-12T05:09:30;2.37;;;1.53;;
5299;SDS011;70402;42.670;23.258;2023-08-12T05:11:57;2.90;;;1.87;;
5299;SDS011;70402;42.670;23.258;2023-08-12T05:14:23;2.53;;;1.63;;
5299;SDS011;70402;42.670;23.258;2023-08-12T05:16:49;2.27;;;1.60;;
5299;SDS011;70402;42.670;23.258;2023-08-12T05:19:15;2.47;;;1.57;;
5299;SDS011;70402;42.670;23.258;2023-08-12T05:21:41;2.40;;;1.30;;
5299;SDS011;70402;42.670;23.258;2023-08-12T05:24:07;3.87;;;1.83;;
5299;SDS011;70402;42.670;23.258;2023-08-12T05:26:36;1.77;;;1.30;;
5299;SDS011;70402;42.670;23.258;2023-08-12T05:29:02;2.37;;;1.70;;
5299;SDS011;70402;42.670;23.258;2023-08-12T05:31:29;2.90;;;1.57;;
5299;SDS011;70402;42.670;23.258;2023-08-12T05:33:55;1.73;;;1.40;;
5299;SDS011;70402;42.670;23.258;2023-08-12T05:36:21;2.00;;;1.60;;
5299;SDS011;70402;42.670;23.258;2023-08-12T05:38:47;1.90;;;1.30;;
5299;SDS011;70402;42.670;23.258;2023-08-12T05:41:13;2.77;;;1.70;;
5299;SDS011;70402;42.670;23.258;2023-08-12T05:43:39;1.87;;;1.40;;
5299;SDS011;70402;42.670;23.258;2023-08-12T05:46:05;5.27;;;1.73;;
5299;SDS011;70402;42.670;23.258;2023-08-12T05:48:31;3.00;;;1.57;;
5299;SDS011;70402;42.670;23.258;2023-08-12T05:50:58;2.10;;;1.60;;
5299;SDS011;70402;42.670;23.258;2023-08-12T05:53:24;2.70;;;1.53;;
5299;SDS011;70402;42.670;23.258;2023-08-12T05:55:50;2.20;;;1.43;;
5299;SDS011;70402;42.670;23.258;2023-08-12T05:58:16;5.10;;;1.80;;
5299;SDS011;70402;42.670;23.258;2023-08-12T06:00:42;2.30;;;1.33;;
5299;SDS011;70402;42.670;23.258;2023-08-12T06:03:11;2.00;;;1.30;;
5299;SDS011;70402;42.670;23.258;2023-08-12T06:05:38;1.90;;;1.30;;
5299;SDS011;70402;42.670;23.258;2023-08-12T06:08:05;1.60;;;1.20;;
5299;SDS011;70402;42.670;23.258;2023-08-12T06:10:31;2.77;;;2.00;;
5299;SDS011;70402;42.670;23.258;2023-08-12T06:12:57;2.00;;;1.60;;
5299;SDS011;70402;42.670;23.258;2023-08-12T06:15:23;3.50;;;1.73;;
5299;SDS011;70402;42.670;23.258;2023-08-12T06:17:49;2.80;;;1.60;;
5299;SDS011;70402;42.670;23.258;2023-08-12T06:20:15;2.53;;;1.57;;
5299;SDS011;70402;42.670;23.258;2023-08-12T06:22:41;2.30;;;1.70;;
5299;SDS011;70402;42.670;23.258;2023-08-12T06:25:08;4.00;;;1.77;;
5299;SDS011;70402;42.670;23.258;2023-08-12T06:27:34;2.27;;;1.67;;
5299;SDS011;70402;42.670;23.258;2023-08-12T06:30:00;4.57;;;1.50;;
5299;SDS011;70402;42.670;23.258;2023-08-12T06:32:26;2.13;;;1.73;;
5299;SDS011;70402;42.670;23.258;2023-08-12T06:34:52;2.07;;;1.40;;
5299;SDS011;70402;42.670;23.258;2023-08-12T06:37:18;2.33;;;1.53;;
5299;SDS011;70402;42.670;23.258;2023-08-12T06:39:44;2.17;;;1.40;;
5299;SDS011;70402;42.670;23.258;2023-08-12T06:42:10;3.23;;;1.40;;
5299;SDS011;70402;42.670;23.258;2023-08-12T06:44:36;2.90;;;1.70;;
5299;SDS011;70402;42.670;23.258;2023-08-12T06:47:03;2.47;;;1.60;;
5299;SDS011;70402;42.670;23.258;2023-08-12T06:49:29;4.10;;;1.93;;
5299;SDS011;70402;42.670;23.258;2023-08-12T06:51:55;2.70;;;1.77;;
5299;SDS011;70402;42.670;23.258;2023-08-12T06:54:22;3.43;;;1.77;;
5299;SDS011;70402;42.670;23.258;2023-08-12T06:56:48;2.10;;;1.60;;
5299;SDS011;70402;42.670;23.258;2023-08-12T06:59:14;1.90;;;1.53;;
5299;SDS011;70402;42.670;23.258;2023-08-12T07:01:40;2.07;;;1.50;;
5299;SDS011;70402;42.670;23.258;2023-08-12T07:04:06;2.40;;;1.77;;
5299;SDS011;70402;42.670;23.258;2023-08-12T07:06:32;2.70;;;1.50;;
5299;SDS011;70402;42.670;23.258;2023-08-12T07:08:58;2.63;;;1.70;;
5299;SDS011;70402;42.670;23.258;2023-08-12T07:11:24;2.43;;;1.67;;
5299;SDS011;70402;42.670;23.258;2023-08-12T07:13:50;2.53;;;1.43;;
5299;SDS011;70402;42.670;23.258;2023-08-12T07:16:16;3.27;;;1.60;;
5299;SDS011;70402;42.670;23.258;2023-08-12T07:18:42;2.80;;;1.80;;
5299;SDS011;70402;42.670;23.258;2023-08-12T07:21:08;2.50;;;1.60;;
5299;SDS011;70402;42.670;23.258;2023-08-12T07:23:34;3.63;;;1.10;;
5299;SDS011;70402;42.670;23.258;2023-08-12T07:26:00;2.37;;;1.33;;
5299;SDS011;70402;42.670;23.258;2023-08-12T07:28:26;3.60;;;1.50;;
5299;SDS011;70402;42.670;23.258;2023-08-12T07:30:53;1.90;;;1.60;;
5299;SDS011;70402;42.670;23.258;2023-08-12T07:33:19;1.67;;;1.40;;
5299;SDS011;70402;42.670;23.258;2023-08-12T07:35:46;2.53;;;1.63;;
5299;SDS011;70402;42.670;23.258;2023-08-12T07:38:12;3.10;;;1.83;;
5299;SDS011;70402;42.670;23.258;2023-08-12T07:40:38;1.73;;;1.50;;
5299;SDS011;70402;42.670;23.258;2023-08-12T07:43:05;3.53;;;1.50;;
5299;SDS011;70402;42.670;23.258;2023-08-12T07:45:31;2.00;;;1.70;;
5299;SDS011;70402;42.670;23.258;2023-08-12T07:47:58;2.70;;;1.70;;
5299;SDS011;70402;42.670;23.258;2023-08-12T07:50:24;2.40;;;1.70;;
5299;SDS011;70402;42.670;23.258;2023-08-12T07:52:50;1.93;;;1.47;;
5299;SDS011;70402;42.670;23.258;2023-08-12T07:55:17;2.57;;;1.57;;
5299;SDS011;70402;42.670;23.258;2023-08-12T07:57:44;2.25;;;1.80;;
5299;SDS011;70402;42.670;23.258;2023-08-12T08:00:11;2.53;;;1.90;;
5299;SDS011;70402;42.670;23.258;2023-08-12T08:02:37;2.20;;;1.53;;
5299;SDS011;70402;42.670;23.258;2023-08-12T08:05:04;2.60;;;1.50;;
5299;SDS011;70402;42.670;23.258;2023-08-12T08:07:31;4.80;;;1.70;;
5299;SDS011;70402;42.670;23.258;2023-08-12T08:09:57;2.57;;;1.80;;
5299;SDS011;70402;42.670;23.258;2023-08-12T08:12:23;2.00;;;1.70;;
5299;SDS011;70402;42.670;23.258;2023-08-12T08:14:50;3.80;;;1.63;;
5299;SDS011;70402;42.670;23.258;2023-08-12T08:17:16;7.13;;;2.07;;
5299;SDS011;70402;42.670;23.258;2023-08-12T08:19:42;2.50;;;1.60;;
5299;SDS011;70402;42.670;23.258;2023-08-12T08:22:08;1.90;;;1.50;;
5299;SDS011;70402;42.670;23.258;2023-08-12T08:24:34;4.93;;;2.93;;
5299;SDS011;70402;42.670;23.258;2023-08-12T08:27:01;2.30;;;1.90;;
5299;SDS011;70402;42.670;23.258;2023-08-12T08:29:29;1.87;;;1.60;;
5299;SDS011;70402;42.670;23.258;2023-08-12T08:31:55;2.73;;;1.60;;
5299;SDS011;70402;42.670;23.258;2023-08-12T08:34:21;3.20;;;1.60;;
5299;SDS011;70402;42.670;23.258;2023-08-12T08:36:48;3.00;;;2.00;;
5299;SDS011;70402;42.670;23.258;2023-08-12T08:39:14;2.47;;;1.88;;
5299;SDS011;70402;42.670;23.258;2023-08-12T08:41:40;1.93;;;1.57;;
5299;SDS011;70402;42.670;23.258;2023-08-12T08:44:08;2.60;;;1.87;;
5299;SDS011;70402;42.670;23.258;2023-08-12T08:46:35;2.27;;;1.60;;
5299;SDS011;70402;42.670;23.258;2023-08-12T08:49:01;1.73;;;1.53;;
5299;SDS011;70402;42.670;23.258;2023-08-12T08:51:30;1.90;;;1.50;;
5299;SDS011;70402;42.670;23.258;2023-08-12T08:53:59;1.70;;;1.60;;
5299;SDS011;70402;42.670;23.258;2023-08-12T08:56:29;1.83;;;1.57;;
5299;SDS011;70402;42.670;23.258;2023-08-12T08:58:57;3.70;;;1.83;;
5299;SDS011;70402;42.670;23.258;2023-08-12T09:01:24;2.23;;;1.73;;
5299;SDS011;70402;42.670;23.258;2023-08-12T09:03:52;2.03;;;1.83;;
5299;SDS011;70402;42.670;23.258;2023-08-12T09:06:22;2.23;;;1.73;;
5299;SDS011;70402;42.670;23.258;2023-08-12T09:08:51;1.73;;;1.47;;
5299;SDS011;70402;42.670;23.258;2023-08-12T09:11:18;2.43;;;1.60;;
5299;SDS011;70402;42.670;23.258;2023-08-12T09:13:44;2.83;;;1.60;;
5299;SDS011;70402;42.670;23.258;2023-08-12T09:16:11;1.87;;;1.50;;
5299;SDS011;70402;42.670;23.258;2023-08-12T09:18:37;2.50;;;1.73;;
5299;SDS011;70402;42.670;23.258;2023-08-12T09:21:03;2.37;;;1.97;;
5299;SDS011;70402;42.670;23.258;2023-08-12T09:23:39;2.57;;;1.67;;
5299;SDS011;70402;42.670;23.258;2023-08-12T09:26:13;1.70;;;1.40;;
5299;SDS011;70402;42.670;23.258;2023-08-12T09:28:43;2.50;;;1.83;;
5299;SDS011;70402;42.670;23.258;2023-08-12T09:31:30;2.97;;;1.80;;
5299;SDS011;70402;42.670;23.258;2023-08-12T09:33:58;3.60;;;1.90;;
5299;SDS011;70402;42.670;23.258;2023-08-12T09:36:27;1.80;;;1.60;;
5299;SDS011;70402;42.670;23.258;2023-08-12T09:38:55;4.00;;;1.63;;
5299;SDS011;70402;42.670;23.258;2023-08-12T09:41:23;1.60;;;1.50;;
5299;SDS011;70402;42.670;23.258;2023-08-12T09:43:51;1.83;;;1.43;;
5299;SDS011;70402;42.670;23.258;2023-08-12T09:46:21;4.40;;;1.60;;
5299;SDS011;70402;42.670;23.258;2023-08-12T09:48:49;1.47;;;1.37;;
5299;SDS011;70402;42.670;23.258;2023-08-12T09:51:16;2.30;;;1.60;;
5299;SDS011;70402;42.670;23.258;2023-08-12T09:53:43;1.57;;;1.30;;
5299;SDS011;70402;42.670;23.258;2023-08-12T09:56:11;6.97;;;1.77;;
5299;SDS011;70402;42.670;23.258;2023-08-12T09:58:37;2.93;;;1.63;;
5299;SDS011;70402;42.670;23.258;2023-08-12T10:01:08;2.00;;;1.40;;
5299;SDS011;70402;42.670;23.258;2023-08-12T10:03:36;2.17;;;1.70;;
5299;SDS011;70402;42.670;23.258;2023-08-12T10:06:02;1.90;;;1.40;;
5299;SDS011;70402;42.670;23.258;2023-08-12T10:08:29;2.20;;;1.63;;
5299;SDS011;70402;42.670;23.258;2023-08-12T10:10:55;2.30;;;1.57;;
5299;SDS011;70402;42.670;23.258;2023-08-12T10:13:21;2.57;;;1.77;;
5299;SDS011;70402;42.670;23.258;2023-08-12T10:15:48;2.73;;;1.67;;
5299;SDS011;70402;42.670;23.258;2023-08-12T10:18:15;2.30;;;1.63;;
5299;SDS011;70402;42.670;23.258;2023-08-12T10:20:42;2.80;;;1.30;;
5299;SDS011;70402;42.670;23.258;2023-08-12T10:23:12;1.90;;;1.60;;
5299;SDS011;70402;42.670;23.258;2023-08-12T10:25:40;2.00;;;1.50;;
5299;SDS011;70402;42.670;23.258;2023-08-12T10:28:08;2.90;;;2.00;;
5299;SDS011;70402;42.670;23.258;2023-08-12T10:30:35;1.80;;;1.53;;
5299;SDS011;70402;42.670;23.258;2023-08-12T10:33:00;3.03;;;1.70;;
5299;SDS011;70402;42.670;23.258;2023-08-12T10:35:42;1.60;;;1.27;;
5299;SDS011;70402;42.670;23.258;2023-08-12T10:38:18;1.93;;;1.37;;
5299;SDS011;70402;42.670;23.258;2023-08-12T10:40:46;2.23;;;1.60;;
5299;SDS011;70402;42.670;23.258;2023-08-12T10:43:13;1.60;;;1.23;;
5299;SDS011;70402;42.670;23.258;2023-08-12T10:45:43;1.93;;;1.20;;
5299;SDS011;70402;42.670;23.258;2023-08-12T10:48:17;1.87;;;1.67;;
5299;SDS011;70402;42.670;23.258;2023-08-12T10:50:51;2.70;;;1.57;;
5299;SDS011;70402;42.670;23.258;2023-08-12T10:53:33;2.60;;;1.33;;
5299;SDS011;70402;42.670;23.258;2023-08-12T10:56:04;1.93;;;1.47;;
5299;SDS011;70402;42.670;23.258;2023-08-12T10:58:33;1.50;;;1.40;;
5299;SDS011;70402;42.670;23.258;2023-08-12T11:01:18;3.17;;;1.47;;
5299;SDS011;70402;42.670;23.258;2023-08-12T11:03:45;1.93;;;1.20;;
5299;SDS011;70402;42.670;23.258;2023-08-12T11:06:11;1.30;;;1.20;;
5299;SDS011;70402;42.670;23.258;2023-08-12T11:08:45;5.70;;;1.43;;
5299;SDS011;70402;42.670;23.258;2023-08-12T11:11:21;2.23;;;1.73;;
5299;SDS011;70402;42.670;23.258;2023-08-12T11:13:57;2.03;;;1.30;;
5299;SDS011;70402;42.670;23.258;2023-08-12T11:16:36;2.80;;;1.60;;
5299;SDS011;70402;42.670;23.258;2023-08-12T11:19:03;1.47;;;1.30;;
5299;SDS011;70402;42.670;23.258;2023-08-12T11:21:29;1.13;;;1.03;;
5299;SDS011;70402;42.670;23.258;2023-08-12T11:23:56;2.00;;;1.27;;
5299;SDS011;70402;42.670;23.258;2023-08-12T11:26:23;1.50;;;1.30;;
5299;SDS011;70402;42.670;23.258;2023-08-12T11:28:49;1.90;;;1.60;;
5299;SDS011;70402;42.670;23.258;2023-08-12T11:31:18;1.63;;;1.47;;
5299;SDS011;70402;42.670;23.258;2023-08-12T11:33:44;1.33;;;1.17;;
5299;SDS011;70402;42.670;23.258;2023-08-12T11:36:10;1.17;;;1.07;;
5299;SDS011;70402;42.670;23.258;2023-08-12T11:38:37;1.37;;;1.17;;
5299;SDS011;70402;42.670;23.258;2023-08-12T11:41:03;1.20;;;1.10;;
5299;SDS011;70402;42.670;23.258;2023-08-12T11:43:31;1.80;;;1.20;;
5299;SDS011;70402;42.670;23.258;2023-08-12T11:45:58;3.27;;;1.40;;
5299;SDS011;70402;42.670;23.258;2023-08-12T11:48:26;1.87;;;1.30;;
5299;SDS011;70402;42.670;23.258;2023-08-12T11:50:52;3.40;;;1.60;;
5299;SDS011;70402;42.670;23.258;2023-08-12T11:53:19;3.07;;;1.20;;
5299;SDS011;70402;42.670;23.258;2023-08-12T11:55:45;1.70;;;1.53;;
5299;SDS011;70402;42.670;23.258;2023-08-12T11:58:13;1.73;;;1.43;;
5299;SDS011;70402;42.670;23.258;2023-08-12T12:00:44;1.40;;;1.00;;
5299;SDS011;70402;42.670;23.258;2023-08-12T12:03:12;1.80;;;1.40;;
5299;SDS011;70402;42.670;23.258;2023-08-12T12:05:38;1.50;;;1.30;;
5299;SDS011;70402;42.670;23.258;2023-08-12T12:08:04;1.40;;;1.00;;
5299;SDS011;70402;42.670;23.258;2023-08-12T12:10:34;1.20;;;0.97;;
5299;SDS011;70402;42.670;23.258;2023-08-12T12:13:01;1.43;;;1.13;;
5299;SDS011;70402;42.670;23.258;2023-08-12T12:15:28;1.33;;;1.00;;
5299;SDS011;70402;42.670;23.258;2023-08-12T12:17:55;1.30;;;0.93;;
5299;SDS011;70402;42.670;23.258;2023-08-12T12:20:21;2.13;;;1.50;;
5299;SDS011;70402;42.670;23.258;2023-08-12T12:22:47;1.67;;;1.30;;
5299;SDS011;70402;42.670;23.258;2023-08-12T12:25:14;2.57;;;1.30;;
5299;SDS011;70402;42.670;23.258;2023-08-12T12:27:42;1.80;;;1.20;;
5299;SDS011;70402;42.670;23.258;2023-08-12T12:30:09;2.27;;;1.50;;
5299;SDS011;70402;42.670;23.258;2023-08-12T12:32:35;4.60;;;1.70;;
5299;SDS011;70402;42.670;23.258;2023-08-12T12:35:02;2.20;;;1.50;;
5299;SDS011;70402;42.670;23.258;2023-08-12T12:37:29;1.80;;;1.43;;
5299;SDS011;70402;42.670;23.258;2023-08-12T12:39:55;1.50;;;1.20;;
5299;SDS011;70402;42.670;23.258;2023-08-12T12:42:22;2.97;;;1.57;;
5299;SDS011;70402;42.670;23.258;2023-08-12T12:44:48;3.63;;;1.63;;
5299;SDS011;70402;42.670;23.258;2023-08-12T12:47:14;1.80;;;1.30;;
5299;SDS011;70402;42.670;23.258;2023-08-12T12:49:41;2.53;;;1.40;;
5299;SDS011;70402;42.670;23.258;2023-08-12T12:52:08;2.00;;;1.50;;
5299;SDS011;70402;42.670;23.258;2023-08-12T12:54:34;2.30;;;1.50;;
5299;SDS011;70402;42.670;23.258;2023-08-12T12:57:01;2.30;;;1.37;;
5299;SDS011;70402;42.670;23.258;2023-08-12T12:59:29;1.70;;;1.50;;
5299;SDS011;70402;42.670;23.258;2023-08-12T13:01:55;1.73;;;1.60;;
5299;SDS011;70402;42.670;23.258;2023-08-12T13:04:21;1.87;;;1.50;;
5299;SDS011;70402;42.670;23.258;2023-08-12T13:06:47;1.50;;;1.40;;
5299;SDS011;70402;42.670;23.258;2023-08-12T13:09:14;2.67;;;1.80;;
5299;SDS011;70402;42.670;23.258;2023-08-12T13:11:40;2.63;;;1.53;;
5299;SDS011;70402;42.670;23.258;2023-08-12T13:14:06;3.57;;;1.43;;
5299;SDS011;70402;42.670;23.258;2023-08-12T13:16:32;1.70;;;1.30;;
5299;SDS011;70402;42.670;23.258;2023-08-12T13:18:58;2.17;;;1.20;;
5299;SDS011;70402;42.670;23.258;2023-08-12T13:21:25;1.80;;;1.13;;
5299;SDS011;70402;42.670;23.258;2023-08-12T13:23:52;1.20;;;1.10;;
5299;SDS011;70402;42.670;23.258;2023-08-12T13:26:18;1.27;;;1.00;;
5299;SDS011;70402;42.670;23.258;2023-08-12T13:28:44;1.87;;;1.50;;
5299;SDS011;70402;42.670;23.258;2023-08-12T13:31:11;2.10;;;1.37;;
5299;SDS011;70402;42.670;23.258;2023-08-12T13:33:37;1.60;;;1.30;;
5299;SDS011;70402;42.670;23.258;2023-08-12T13:36:03;1.27;;;1.00;;
5299;SDS011;70402;42.670;23.258;2023-08-12T13:38:29;2.07;;;1.27;;
5299;SDS011;70402;42.670;23.258;2023-08-12T13:40:55;1.40;;;1.20;;
5299;SDS011;70402;42.670;23.258;2023-08-12T13:43:21;1.13;;;1.03;;
5299;SDS011;70402;42.670;23.258;2023-08-12T13:45:47;1.87;;;1.23;;
5299;SDS011;70402;42.670;23.258;2023-08-12T13:48:13;1.13;;;0.90;;
5299;SDS011;70402;42.670;23.258;2023-08-12T13:50:40;1.77;;;1.23;;
5299;SDS011;70402;42.670;23.258;2023-08-12T13:53:06;1.40;;;1.10;;
5299;SDS011;70402;42.670;23.258;2023-08-12T13:55:32;1.37;;;1.10;;
5299;SDS011;70402;42.670;23.258;2023-08-12T13:57:58;2.43;;;1.20;;
5299;SDS011;70402;42.670;23.258;2023-08-12T14:00:25;1.40;;;1.30;;
5299;SDS011;70402;42.670;23.258;2023-08-12T14:02:51;1.60;;;1.30;;
5299;SDS011;70402;42.670;23.258;2023-08-12T14:05:17;1.10;;;1.00;;
5299;SDS011;70402;42.670;23.258;2023-08-12T14:07:43;3.27;;;1.30;;
5299;SDS011;70402;42.670;23.258;2023-08-12T14:10:10;1.40;;;1.00;;
5299;SDS011;70402;42.670;23.258;2023-08-12T14:12:35;1.20;;;1.07;;
5299;SDS011;70402;42.670;23.258;2023-08-12T14:15:02;2.93;;;1.33;;
5299;SDS011;70402;42.670;23.258;2023-08-12T14:17:28;1.97;;;1.30;;
5299;SDS011;70402;42.670;23.258;2023-08-12T14:19:53;3.17;;;1.57;;
5299;SDS011;70402;42.670;23.258;2023-08-12T14:22:19;2.03;;;1.20;;
5299;SDS011;70402;42.670;23.258;2023-08-12T14:24:46;1.67;;;1.37;;
5299;SDS011;70402;42.670;23.258;2023-08-12T14:27:15;1.50;;;1.20;;
5299;SDS011;70402;42.670;23.258;2023-08-12T14:29:45;2.20;;;1.70;;
5299;SDS011;70402;42.670;23.258;2023-08-12T14:32:11;1.77;;;1.27;;
5299;SDS011;70402;42.670;23.258;2023-08-12T14:34:37;1.90;;;1.43;;
5299;SDS011;70402;42.670;23.258;2023-08-12T14:37:03;1.60;;;1.20;;
5299;SDS011;70402;42.670;23.258;2023-08-12T14:39:30;2.90;;;1.53;;
5299;SDS011;70402;42.670;23.258;2023-08-12T14:41:56;2.23;;;1.40;;
5299;SDS011;70402;42.670;23.258;2023-08-12T14:44:23;1.60;;;1.10;;
5299;SDS011;70402;42.670;23.258;2023-08-12T14:46:51;1.90;;;1.20;;
5299;SDS011;70402;42.670;23.258;2023-08-12T14:49:17;2.40;;;1.50;;
5299;SDS011;70402;42.670;23.258;2023-08-12T14:51:43;2.30;;;1.40;;